ACA4 RJAA-CYVR
Flight info
| Callsign | ACA4 |
|---|---|
| Flight time | N/A |
| Altitude | 35000 |
| Route | KIMIN DAIGO Y889 PUTER PUTER PASRO/N0464F370 A590 PUGGY/N0463F390 R341 ODK J123 CJAYY B757 KATCH DCT POWOL WHSLR8 |
| Aircraft | A339/H-SDE3FGHIJ7M3P2RWXY/LB1 |
Departure
| Time | 2026-05-06 19:19 |
|---|---|
| Airport | Narita International Airport (RJAA) |
Arrival
| Time | N/A |
|---|---|
| Airport | Vancouver International Airport (CYVR) |
| Time | Latitude | Longitude | Altitude | Speed | Heading |
|---|---|---|---|---|---|
| 2026-05-06 18:30 | 35.76030 | 140.38719 | 148 ft | 0 kts | 240° |
| 2026-05-06 19:00 | 35.76035 | 140.38728 | 148 ft | 2 kts | 240° |
| 2026-05-06 19:00 | 35.76042 | 140.38744 | 147 ft | 2 kts | 239° |
| 2026-05-06 19:00 | 35.76049 | 140.38760 | 146 ft | 2 kts | 239° |
| 2026-05-06 19:01 | 35.76057 | 140.38776 | 145 ft | 2 kts | 239° |
| 2026-05-06 19:01 | 35.76065 | 140.38792 | 144 ft | 2 kts | 238° |
| 2026-05-06 19:01 | 35.76076 | 140.38805 | 143 ft | 2 kts | 184° |
| 2026-05-06 19:01 | 35.76091 | 140.38802 | 144 ft | 2 kts | 146° |
| 2026-05-06 19:02 | 35.76100 | 140.38788 | 145 ft | 2 kts | 109° |
| 2026-05-06 19:02 | 35.76104 | 140.38771 | 147 ft | 1 kts | 111° |
| 2026-05-06 19:02 | 35.76106 | 140.38768 | 147 ft | 0 kts | 112° |
| 2026-05-06 19:06 | 35.76097 | 140.38794 | 145 ft | 7 kts | 112° |
| 2026-05-06 19:07 | 35.76070 | 140.38867 | 138 ft | 9 kts | 114° |
| 2026-05-06 19:07 | 35.76047 | 140.38931 | 135 ft | 8 kts | 114° |
| 2026-05-06 19:07 | 35.76024 | 140.38992 | 134 ft | 8 kts | 115° |
| 2026-05-06 19:07 | 35.75994 | 140.39047 | 135 ft | 7 kts | 137° |
| 2026-05-06 19:08 | 35.75952 | 140.39082 | 137 ft | 5 kts | 148° |
| 2026-05-06 19:08 | 35.75928 | 140.39101 | 140 ft | 2 kts | 148° |
| 2026-05-06 19:08 | 35.75912 | 140.39113 | 141 ft | 3 kts | 148° |
| 2026-05-06 19:08 | 35.75886 | 140.39131 | 141 ft | 6 kts | 149° |
| 2026-05-06 19:09 | 35.75846 | 140.39156 | 142 ft | 6 kts | 156° |
| 2026-05-06 19:09 | 35.75823 | 140.39154 | 141 ft | 4 kts | 222° |
| 2026-05-06 19:09 | 35.75793 | 140.39104 | 139 ft | 9 kts | 238° |
| 2026-05-06 19:09 | 35.75754 | 140.39024 | 139 ft | 11 kts | 239° |
| 2026-05-06 19:10 | 35.75720 | 140.38954 | 142 ft | 8 kts | 239° |
| 2026-05-06 19:10 | 35.75688 | 140.38886 | 145 ft | 9 kts | 239° |
| 2026-05-06 19:10 | 35.75653 | 140.38812 | 148 ft | 9 kts | 239° |
| 2026-05-06 19:10 | 35.75619 | 140.38745 | 149 ft | 9 kts | 239° |
| 2026-05-06 19:11 | 35.75598 | 140.38663 | 148 ft | 10 kts | 261° |
| 2026-05-06 19:11 | 35.75597 | 140.38576 | 148 ft | 8 kts | 277° |
| 2026-05-06 19:11 | 35.75625 | 140.38525 | 149 ft | 7 kts | 325° |
| 2026-05-06 19:11 | 35.75676 | 140.38486 | 150 ft | 9 kts | 328° |
| 2026-05-06 19:12 | 35.75748 | 140.38432 | 150 ft | 13 kts | 329° |
| 2026-05-06 19:12 | 35.75837 | 140.38368 | 147 ft | 14 kts | 329° |
| 2026-05-06 19:12 | 35.75930 | 140.38303 | 146 ft | 15 kts | 329° |
| 2026-05-06 19:12 | 35.76026 | 140.38232 | 146 ft | 16 kts | 329° |
| 2026-05-06 19:13 | 35.76120 | 140.38165 | 148 ft | 15 kts | 329° |
| 2026-05-06 19:13 | 35.76205 | 140.38103 | 150 ft | 13 kts | 329° |
| 2026-05-06 19:13 | 35.76286 | 140.38045 | 151 ft | 13 kts | 329° |
| 2026-05-06 19:13 | 35.76371 | 140.37984 | 149 ft | 15 kts | 329° |
| 2026-05-06 19:14 | 35.76469 | 140.37913 | 146 ft | 16 kts | 329° |
| 2026-05-06 19:14 | 35.76544 | 140.37857 | 142 ft | 8 kts | 327° |
| 2026-05-06 19:14 | 35.76573 | 140.37813 | 143 ft | 6 kts | 276° |
| 2026-05-06 19:14 | 35.76562 | 140.37766 | 144 ft | 5 kts | 257° |
| 2026-05-06 19:15 | 35.76579 | 140.37711 | 143 ft | 8 kts | 316° |
| 2026-05-06 19:15 | 35.76646 | 140.37656 | 140 ft | 14 kts | 329° |
| 2026-05-06 19:15 | 35.76761 | 140.37575 | 128 ft | 22 kts | 329° |
| 2026-05-06 19:15 | 35.76891 | 140.37480 | 132 ft | 19 kts | 329° |
| 2026-05-06 19:16 | 35.76990 | 140.37408 | 140 ft | 14 kts | 329° |
| 2026-05-06 19:16 | 35.77086 | 140.37338 | 138 ft | 17 kts | 329° |
| 2026-05-06 19:16 | 35.77202 | 140.37256 | 133 ft | 20 kts | 329° |
| 2026-05-06 19:16 | 35.77322 | 140.37167 | 133 ft | 19 kts | 328° |
| 2026-05-06 19:17 | 35.77423 | 140.37096 | 136 ft | 11 kts | 330° |
| 2026-05-06 19:17 | 35.77477 | 140.37056 | 138 ft | 7 kts | 322° |
| 2026-05-06 19:17 | 35.77497 | 140.37006 | 140 ft | 6 kts | 272° |
| 2026-05-06 19:17 | 35.77481 | 140.36952 | 140 ft | 7 kts | 240° |
| 2026-05-06 19:18 | 35.77452 | 140.36890 | 140 ft | 9 kts | 240° |
| 2026-05-06 19:18 | 35.77423 | 140.36847 | 139 ft | 5 kts | 201° |
| 2026-05-06 19:18 | 35.77395 | 140.36856 | 138 ft | 4 kts | 147° |
| 2026-05-06 19:18 | 35.77330 | 140.36906 | 135 ft | 29 kts | 148° |
| 2026-05-06 19:19 | 35.76956 | 140.37177 | 137 ft | 92 kts | 149° |
| 2026-05-06 19:19 | 35.76223 | 140.37705 | 144 ft | 146 kts | 149° |
| 2026-05-06 19:19 | 35.75216 | 140.38429 | 229 ft | 183 kts | 150° |
| 2026-05-06 19:19 | 35.74124 | 140.39189 | 843 ft | 180 kts | 151° |
| 2026-05-06 19:20 | 35.73038 | 140.39964 | 1453 ft | 183 kts | 151° |
| 2026-05-06 19:20 | 35.71951 | 140.40758 | 2041 ft | 182 kts | 152° |
| 2026-05-06 19:20 | 35.70869 | 140.41544 | 2522 ft | 183 kts | 152° |
| 2026-05-06 19:20 | 35.69757 | 140.42351 | 2925 ft | 189 kts | 153° |
| 2026-05-06 19:21 | 35.68586 | 140.43188 | 3188 ft | 203 kts | 153° |
| 2026-05-06 19:21 | 35.67310 | 140.44106 | 3459 ft | 218 kts | 153° |
| 2026-05-06 19:21 | 35.65949 | 140.45082 | 3750 ft | 234 kts | 153° |
| 2026-05-06 19:21 | 35.64505 | 140.46121 | 4049 ft | 251 kts | 153° |
| 2026-05-06 19:22 | 35.62947 | 140.47244 | 4458 ft | 263 kts | 153° |
| 2026-05-06 19:22 | 35.61372 | 140.48381 | 5056 ft | 267 kts | 153° |
| 2026-05-06 19:22 | 35.59764 | 140.49544 | 5687 ft | 269 kts | 153° |
| 2026-05-06 19:22 | 35.58145 | 140.50708 | 6289 ft | 273 kts | 153° |
| 2026-05-06 19:23 | 35.56491 | 140.51898 | 6881 ft | 276 kts | 153° |
| 2026-05-06 19:23 | 35.54820 | 140.53084 | 7441 ft | 280 kts | 156° |
| 2026-05-06 19:23 | 35.53156 | 140.54343 | 7980 ft | 289 kts | 140° |
| 2026-05-06 19:23 | 35.51970 | 140.56374 | 8529 ft | 300 kts | 114° |
| 2026-05-06 19:24 | 35.51642 | 140.58874 | 9060 ft | 308 kts | 84° |
| 2026-05-06 19:24 | 35.52290 | 140.61360 | 9616 ft | 310 kts | 55° |
| 2026-05-06 19:24 | 35.53570 | 140.63484 | 10183 ft | 312 kts | 50° |
| 2026-05-06 19:24 | 35.54928 | 140.65637 | 10499 ft | 326 kts | 51° |
| 2026-05-06 19:25 | 35.56350 | 140.67905 | 10765 ft | 340 kts | 51° |
| 2026-05-06 19:25 | 35.57814 | 140.70259 | 11083 ft | 352 kts | 51° |
| 2026-05-06 19:25 | 35.59292 | 140.72656 | 11568 ft | 358 kts | 51° |
| 2026-05-06 19:25 | 35.60814 | 140.75130 | 12124 ft | 362 kts | 51° |
| 2026-05-06 19:26 | 35.62312 | 140.77574 | 12689 ft | 365 kts | 51° |
| 2026-05-06 19:26 | 35.63844 | 140.80078 | 13219 ft | 369 kts | 51° |
| 2026-05-06 19:26 | 35.65411 | 140.82642 | 13747 ft | 373 kts | 51° |
| 2026-05-06 19:26 | 35.66960 | 140.85170 | 14290 ft | 376 kts | 51° |
| 2026-05-06 19:27 | 35.68543 | 140.87762 | 14816 ft | 380 kts | 51° |
| 2026-05-06 19:27 | 35.70144 | 140.90387 | 15315 ft | 385 kts | 51° |
| 2026-05-06 19:27 | 35.71746 | 140.93015 | 15828 ft | 388 kts | 51° |
| 2026-05-06 19:27 | 35.73378 | 140.95694 | 16332 ft | 392 kts | 50° |
| 2026-05-06 19:28 | 35.75011 | 140.98373 | 16823 ft | 395 kts | 51° |
| 2026-05-06 19:28 | 35.76679 | 141.01114 | 17358 ft | 398 kts | 51° |
| 2026-05-06 19:28 | 35.78336 | 141.03845 | 17816 ft | 402 kts | 50° |
| 2026-05-06 19:28 | 35.80001 | 141.06587 | 18268 ft | 406 kts | 51° |
| 2026-05-06 19:29 | 35.81703 | 141.09392 | 18765 ft | 409 kts | 51° |
| 2026-05-06 19:29 | 35.83414 | 141.12215 | 19288 ft | 411 kts | 51° |
| 2026-05-06 19:29 | 35.85121 | 141.15037 | 19802 ft | 413 kts | 51° |
| 2026-05-06 19:29 | 35.86818 | 141.17844 | 20259 ft | 416 kts | 51° |
| 2026-05-06 19:30 | 35.88570 | 141.20744 | 20713 ft | 420 kts | 50° |
| 2026-05-06 19:30 | 35.90305 | 141.23614 | 21146 ft | 423 kts | 51° |
| 2026-05-06 19:30 | 35.92072 | 141.26541 | 21582 ft | 426 kts | 51° |
| 2026-05-06 19:30 | 35.93835 | 141.29468 | 21997 ft | 430 kts | 51° |
| 2026-05-06 19:31 | 35.95632 | 141.32443 | 22432 ft | 432 kts | 51° |
| 2026-05-06 19:31 | 35.97421 | 141.35416 | 22843 ft | 435 kts | 51° |
| 2026-05-06 19:31 | 36.01029 | 141.41425 | 23626 ft | 441 kts | 51° |
| 2026-05-06 19:32 | 36.02854 | 141.44464 | 24003 ft | 444 kts | 51° |
| 2026-05-06 19:32 | 36.04712 | 141.47569 | 24379 ft | 447 kts | 50° |
| 2026-05-06 19:32 | 36.06568 | 141.50661 | 24752 ft | 450 kts | 51° |
| 2026-05-06 19:32 | 36.08434 | 141.53775 | 25107 ft | 453 kts | 50° |
| 2026-05-06 19:33 | 36.10309 | 141.56908 | 25480 ft | 456 kts | 50° |
| 2026-05-06 19:33 | 36.12191 | 141.60053 | 25857 ft | 458 kts | 51° |
| 2026-05-06 19:33 | 36.14084 | 141.63225 | 26233 ft | 460 kts | 50° |
| 2026-05-06 19:33 | 36.15979 | 141.66403 | 26541 ft | 463 kts | 51° |
| 2026-05-06 19:34 | 36.17905 | 141.69624 | 26820 ft | 467 kts | 51° |
| 2026-05-06 19:34 | 36.19820 | 141.72838 | 27118 ft | 470 kts | 51° |
| 2026-05-06 19:34 | 36.21762 | 141.76106 | 27461 ft | 471 kts | 51° |
| 2026-05-06 19:34 | 36.23714 | 141.79391 | 27815 ft | 472 kts | 51° |
| 2026-05-06 19:35 | 36.25644 | 141.82643 | 28166 ft | 473 kts | 51° |
| 2026-05-06 19:35 | 36.27586 | 141.85921 | 28474 ft | 475 kts | 51° |
| 2026-05-06 19:35 | 36.29547 | 141.89230 | 28782 ft | 477 kts | 51° |
| 2026-05-06 19:35 | 36.31525 | 141.92563 | 29056 ft | 479 kts | 51° |
| 2026-05-06 19:36 | 36.33494 | 141.95889 | 29321 ft | 482 kts | 51° |
| 2026-05-06 19:36 | 36.35474 | 141.99243 | 29605 ft | 483 kts | 51° |
| 2026-05-06 19:36 | 36.37448 | 142.02588 | 29874 ft | 485 kts | 51° |
| 2026-05-06 19:36 | 36.39439 | 142.05963 | 30038 ft | 487 kts | 51° |
| 2026-05-06 19:37 | 36.43460 | 142.12785 | 30388 ft | 492 kts | 51° |
| 2026-05-06 19:37 | 36.45467 | 142.16194 | 30660 ft | 493 kts | 51° |
| 2026-05-06 19:37 | 36.47488 | 142.19638 | 30904 ft | 495 kts | 50° |
| 2026-05-06 19:38 | 36.49500 | 142.23070 | 31141 ft | 497 kts | 50° |
| 2026-05-06 19:38 | 36.51557 | 142.26581 | 31362 ft | 500 kts | 50° |
| 2026-05-06 19:38 | 36.53581 | 142.30032 | 31577 ft | 502 kts | 50° |
| 2026-05-06 19:38 | 36.55755 | 142.33426 | 31759 ft | 500 kts | 41° |
| 2026-05-06 19:39 | 36.58363 | 142.36241 | 31997 ft | 493 kts | 28° |
| 2026-05-06 19:39 | 36.61229 | 142.38481 | 32218 ft | 490 kts | 24° |
| 2026-05-06 19:39 | 36.64210 | 142.40569 | 32454 ft | 490 kts | 22° |
| 2026-05-06 19:39 | 36.67217 | 142.42622 | 32714 ft | 491 kts | 22° |
| 2026-05-06 19:40 | 36.70220 | 142.44667 | 32939 ft | 493 kts | 22° |
| 2026-05-06 19:40 | 36.73220 | 142.46712 | 33155 ft | 494 kts | 22° |
| 2026-05-06 19:40 | 36.76221 | 142.48761 | 33404 ft | 495 kts | 22° |
| 2026-05-06 19:40 | 36.79257 | 142.50844 | 33715 ft | 495 kts | 22° |
| 2026-05-06 19:41 | 36.82251 | 142.52892 | 33983 ft | 496 kts | 22° |
| 2026-05-06 19:41 | 36.85276 | 142.54970 | 34296 ft | 495 kts | 22° |
| 2026-05-06 19:41 | 36.88325 | 142.57069 | 34636 ft | 494 kts | 22° |
| 2026-05-06 19:41 | 36.91308 | 142.59119 | 34884 ft | 495 kts | 22° |
| 2026-05-06 19:42 | 36.94358 | 142.61214 | 35062 ft | 497 kts | 22° |
| 2026-05-06 19:42 | 36.97384 | 142.63289 | 35064 ft | 498 kts | 22° |
| 2026-05-06 19:42 | 37.00339 | 142.65602 | 35055 ft | 505 kts | 33° |
| 2026-05-06 19:42 | 37.02969 | 142.68541 | 35069 ft | 509 kts | 40° |
| 2026-05-06 19:43 | 37.07858 | 142.74934 | 35067 ft | 508 kts | 42° |
| 2026-05-06 19:43 | 37.12660 | 142.81413 | 35074 ft | 508 kts | 42° |
| 2026-05-06 19:44 | 37.17445 | 142.87892 | 35072 ft | 507 kts | 43° |
| 2026-05-06 19:44 | 37.22242 | 142.94359 | 35076 ft | 508 kts | 42° |
| 2026-05-06 19:45 | 37.27025 | 143.00845 | 35075 ft | 505 kts | 42° |
| 2026-05-06 19:45 | 37.31779 | 143.07312 | 35071 ft | 505 kts | 42° |
| 2026-05-06 19:46 | 37.36521 | 143.13756 | 35072 ft | 505 kts | 43° |
| 2026-05-06 19:46 | 37.41314 | 143.20258 | 35068 ft | 505 kts | 42° |
| 2026-05-06 19:47 | 37.46059 | 143.26718 | 35068 ft | 504 kts | 42° |
| 2026-05-06 19:47 | 37.50768 | 143.33165 | 35066 ft | 503 kts | 42° |
| 2026-05-06 19:48 | 37.55490 | 143.39635 | 35065 ft | 502 kts | 42° |
| 2026-05-06 19:48 | 37.60226 | 143.46129 | 35065 ft | 504 kts | 42° |
| 2026-05-06 19:49 | 37.64960 | 143.52596 | 35069 ft | 504 kts | 42° |
| 2026-05-06 19:49 | 37.69606 | 143.59222 | 35065 ft | 508 kts | 48° |
| 2026-05-06 19:50 | 37.73635 | 143.66585 | 35067 ft | 509 kts | 52° |
| 2026-05-06 19:50 | 37.77535 | 143.73997 | 35077 ft | 510 kts | 52° |
| 2026-05-06 19:51 | 37.81443 | 143.81465 | 35075 ft | 511 kts | 52° |
| 2026-05-06 19:51 | 37.85344 | 143.88913 | 35081 ft | 511 kts | 52° |
| 2026-05-06 19:52 | 37.89275 | 143.96416 | 35079 ft | 512 kts | 52° |
| 2026-05-06 19:52 | 37.93217 | 144.03950 | 35082 ft | 512 kts | 52° |
| 2026-05-06 19:53 | 37.97134 | 144.11423 | 35085 ft | 512 kts | 52° |
| 2026-05-06 19:53 | 38.01067 | 144.18924 | 35079 ft | 512 kts | 52° |
| 2026-05-06 19:54 | 38.04975 | 144.26433 | 35084 ft | 511 kts | 52° |
| 2026-05-06 19:54 | 38.08861 | 144.33931 | 35086 ft | 510 kts | 52° |
| 2026-05-06 19:55 | 38.12753 | 144.41467 | 35086 ft | 510 kts | 52° |
| 2026-05-06 19:55 | 38.16635 | 144.49002 | 35087 ft | 511 kts | 52° |
| 2026-05-06 19:56 | 38.20511 | 144.56531 | 35085 ft | 510 kts | 52° |
| 2026-05-06 19:56 | 38.24352 | 144.64044 | 35085 ft | 510 kts | 52° |
| 2026-05-06 19:57 | 38.28220 | 144.71576 | 35086 ft | 510 kts | 52° |
| 2026-05-06 19:57 | 38.32085 | 144.79129 | 35089 ft | 511 kts | 52° |
| 2026-05-06 19:58 | 38.35968 | 144.86722 | 35087 ft | 511 kts | 52° |
| 2026-05-06 19:58 | 38.39801 | 144.94253 | 35086 ft | 510 kts | 52° |
| 2026-05-06 19:59 | 38.43670 | 145.01840 | 35093 ft | 510 kts | 52° |
| 2026-05-06 19:59 | 38.47522 | 145.09416 | 35089 ft | 510 kts | 52° |
| 2026-05-06 20:00 | 38.51413 | 145.17024 | 35098 ft | 512 kts | 52° |
| 2026-05-06 20:00 | 38.55287 | 145.24609 | 35093 ft | 512 kts | 52° |
| 2026-05-06 20:01 | 38.59167 | 145.32254 | 35094 ft | 511 kts | 52° |
| 2026-05-06 20:01 | 38.63031 | 145.39870 | 35096 ft | 512 kts | 52° |
| 2026-05-06 20:02 | 38.66872 | 145.47466 | 35098 ft | 513 kts | 52° |
| 2026-05-06 20:02 | 38.70752 | 145.55130 | 35098 ft | 513 kts | 52° |
| 2026-05-06 20:03 | 38.74620 | 145.62781 | 35098 ft | 513 kts | 52° |
| 2026-05-06 20:03 | 38.78502 | 145.70467 | 35097 ft | 515 kts | 52° |
| 2026-05-06 20:04 | 38.82350 | 145.78093 | 35094 ft | 513 kts | 53° |
| 2026-05-06 20:04 | 38.86240 | 145.85782 | 35099 ft | 515 kts | 52° |
| 2026-05-06 20:05 | 38.90113 | 145.93449 | 35100 ft | 515 kts | 52° |
| 2026-05-06 20:05 | 38.93996 | 146.01169 | 35103 ft | 515 kts | 52° |
| 2026-05-06 20:06 | 38.97879 | 146.08873 | 35103 ft | 515 kts | 52° |
| 2026-05-06 20:06 | 39.01765 | 146.16609 | 35104 ft | 515 kts | 52° |
| 2026-05-06 20:07 | 39.05622 | 146.24286 | 35108 ft | 515 kts | 52° |
| 2026-05-06 20:07 | 39.09510 | 146.32011 | 35106 ft | 516 kts | 52° |
| 2026-05-06 20:08 | 39.13398 | 146.39784 | 35105 ft | 514 kts | 52° |
| 2026-05-06 20:08 | 39.17265 | 146.47482 | 35109 ft | 515 kts | 52° |
| 2026-05-06 20:09 | 39.21231 | 146.55098 | 35108 ft | 511 kts | 48° |
| 2026-05-06 20:09 | 39.25676 | 146.62164 | 35107 ft | 506 kts | 42° |
| 2026-05-06 20:10 | 39.30588 | 146.68622 | 35109 ft | 503 kts | 37° |
| 2026-05-06 20:10 | 39.35692 | 146.74803 | 35106 ft | 502 kts | 37° |
| 2026-05-06 20:11 | 39.40780 | 146.80980 | 35109 ft | 502 kts | 37° |
| 2026-05-06 20:11 | 39.45860 | 146.87196 | 35107 ft | 503 kts | 37° |
| 2026-05-06 20:12 | 39.50926 | 146.93428 | 35109 ft | 503 kts | 37° |
| 2026-05-06 20:12 | 39.55969 | 146.99646 | 35109 ft | 502 kts | 38° |
| 2026-05-06 20:13 | 39.61006 | 147.05875 | 35114 ft | 502 kts | 37° |
| 2026-05-06 20:13 | 39.66051 | 147.12123 | 35112 ft | 502 kts | 38° |
| 2026-05-06 20:14 | 39.71056 | 147.18333 | 35113 ft | 501 kts | 38° |
| 2026-05-06 20:14 | 39.76074 | 147.24576 | 35109 ft | 501 kts | 37° |
| 2026-05-06 20:15 | 39.81088 | 147.30826 | 35110 ft | 501 kts | 37° |
| 2026-05-06 20:15 | 39.86114 | 147.37102 | 35108 ft | 500 kts | 38° |
| 2026-05-06 20:16 | 39.91118 | 147.43370 | 35107 ft | 500 kts | 38° |
| 2026-05-06 20:16 | 39.96098 | 147.49612 | 35104 ft | 500 kts | 38° |
| 2026-05-06 20:17 | 40.01117 | 147.55927 | 35105 ft | 498 kts | 38° |
| 2026-05-06 20:17 | 40.06106 | 147.62207 | 35102 ft | 499 kts | 38° |
| 2026-05-06 20:18 | 40.11092 | 147.68506 | 35096 ft | 498 kts | 38° |
| 2026-05-06 20:18 | 40.16044 | 147.74770 | 35100 ft | 498 kts | 38° |
| 2026-05-06 20:19 | 40.21022 | 147.81081 | 35097 ft | 498 kts | 38° |
| 2026-05-06 20:19 | 40.25961 | 147.87357 | 35098 ft | 499 kts | 38° |
| 2026-05-06 20:20 | 40.30922 | 147.93675 | 35100 ft | 499 kts | 38° |
| 2026-05-06 20:20 | 40.35901 | 148.00030 | 35088 ft | 498 kts | 39° |
| 2026-05-06 20:21 | 40.40845 | 148.06352 | 35094 ft | 499 kts | 39° |
| 2026-05-06 20:21 | 40.45772 | 148.12672 | 35092 ft | 498 kts | 39° |
| 2026-05-06 20:22 | 40.50739 | 148.19047 | 35107 ft | 499 kts | 38° |
| 2026-05-06 20:22 | 40.55658 | 148.25380 | 35102 ft | 500 kts | 39° |
| 2026-05-06 20:23 | 40.60619 | 148.31784 | 35098 ft | 499 kts | 39° |
| 2026-05-06 20:23 | 40.65556 | 148.38164 | 35102 ft | 499 kts | 39° |
| 2026-05-06 20:24 | 40.70519 | 148.44594 | 35097 ft | 500 kts | 39° |
| 2026-05-06 20:24 | 40.75479 | 148.51038 | 35103 ft | 500 kts | 39° |
| 2026-05-06 20:25 | 40.80407 | 148.57452 | 35100 ft | 499 kts | 39° |
| 2026-05-06 20:25 | 40.85341 | 148.63890 | 35099 ft | 499 kts | 39° |
| 2026-05-06 20:26 | 40.90269 | 148.70329 | 35094 ft | 500 kts | 40° |
| 2026-05-06 20:26 | 40.95208 | 148.76800 | 35104 ft | 500 kts | 40° |
| 2026-05-06 20:27 | 41.00148 | 148.83289 | 35102 ft | 499 kts | 40° |
| 2026-05-06 20:27 | 41.05060 | 148.89755 | 35100 ft | 498 kts | 40° |
| 2026-05-06 20:28 | 41.09968 | 148.96231 | 35094 ft | 498 kts | 40° |
| 2026-05-06 20:28 | 41.14892 | 149.02745 | 35096 ft | 498 kts | 40° |
| 2026-05-06 20:29 | 41.19788 | 149.09236 | 35104 ft | 498 kts | 40° |
| 2026-05-06 20:29 | 41.24685 | 149.15749 | 35109 ft | 499 kts | 40° |
| 2026-05-06 20:30 | 41.32006 | 149.25508 | 35109 ft | 499 kts | 40° |
| 2026-05-06 20:31 | 41.36908 | 149.32060 | 35102 ft | 498 kts | 40° |
| 2026-05-06 20:31 | 41.41770 | 149.38573 | 35096 ft | 497 kts | 40° |
| 2026-05-06 20:32 | 41.46631 | 149.45099 | 35103 ft | 497 kts | 40° |
| 2026-05-06 20:32 | 41.51478 | 149.51619 | 35098 ft | 496 kts | 40° |
| 2026-05-06 20:33 | 41.56327 | 149.58157 | 35086 ft | 496 kts | 40° |
| 2026-05-06 20:33 | 41.61167 | 149.64700 | 35111 ft | 496 kts | 40° |
| 2026-05-06 20:34 | 41.66005 | 149.71254 | 35089 ft | 496 kts | 41° |
| 2026-05-06 20:34 | 41.70805 | 149.77774 | 35089 ft | 495 kts | 41° |
| 2026-05-06 20:35 | 41.75650 | 149.84369 | 35092 ft | 495 kts | 41° |
| 2026-05-06 20:35 | 41.80444 | 149.90909 | 35098 ft | 495 kts | 41° |
| 2026-05-06 20:36 | 41.85250 | 149.97476 | 35094 ft | 495 kts | 41° |
| 2026-05-06 20:36 | 41.90083 | 150.04100 | 35089 ft | 495 kts | 41° |
| 2026-05-06 20:37 | 41.94882 | 150.10692 | 35098 ft | 495 kts | 41° |
| 2026-05-06 20:37 | 41.99666 | 150.17278 | 35097 ft | 494 kts | 41° |
| 2026-05-06 20:38 | 42.04459 | 150.23891 | 35088 ft | 494 kts | 41° |
| 2026-05-06 20:38 | 42.09206 | 150.30455 | 35088 ft | 493 kts | 41° |
| 2026-05-06 20:39 | 42.13995 | 150.37094 | 35075 ft | 493 kts | 41° |
| 2026-05-06 20:39 | 42.18746 | 150.43695 | 35088 ft | 492 kts | 41° |
| 2026-05-06 20:40 | 42.23484 | 150.50293 | 35085 ft | 492 kts | 41° |
| 2026-05-06 20:40 | 42.28245 | 150.56938 | 35083 ft | 492 kts | 41° |
| 2026-05-06 20:40 | 42.30609 | 150.60243 | 34968 ft | 492 kts | 41° |
| 2026-05-06 20:41 | 42.32993 | 150.63582 | 35035 ft | 493 kts | 41° |
| 2026-05-06 20:41 | 42.37713 | 150.70200 | 35062 ft | 492 kts | 42° |
| 2026-05-06 20:42 | 42.42447 | 150.76852 | 35084 ft | 492 kts | 42° |
| 2026-05-06 20:42 | 42.47197 | 150.83545 | 35076 ft | 493 kts | 42° |
| 2026-05-06 20:43 | 42.51919 | 150.90213 | 35085 ft | 492 kts | 42° |
| 2026-05-06 20:43 | 42.56651 | 150.96910 | 35075 ft | 492 kts | 42° |
| 2026-05-06 20:44 | 42.61372 | 151.03606 | 35077 ft | 492 kts | 42° |
| 2026-05-06 20:44 | 42.66080 | 151.10301 | 35085 ft | 492 kts | 41° |
| 2026-05-06 20:45 | 42.70794 | 151.17021 | 35077 ft | 492 kts | 42° |
| 2026-05-06 20:45 | 42.75480 | 151.23714 | 35071 ft | 491 kts | 42° |
| 2026-05-06 20:46 | 42.80186 | 151.30455 | 35059 ft | 491 kts | 42° |
| 2026-05-06 20:46 | 42.84866 | 151.37172 | 35068 ft | 491 kts | 41° |
| 2026-05-06 20:47 | 42.89529 | 151.43881 | 35063 ft | 490 kts | 41° |
| 2026-05-06 20:47 | 42.94213 | 151.50635 | 35062 ft | 490 kts | 42° |
| 2026-05-06 20:48 | 42.98875 | 151.57373 | 35062 ft | 490 kts | 41° |
| 2026-05-06 20:48 | 43.03536 | 151.64127 | 35060 ft | 490 kts | 41° |
| 2026-05-06 20:49 | 43.08208 | 151.70912 | 35061 ft | 491 kts | 43° |
| 2026-05-06 20:49 | 43.12879 | 151.77713 | 35058 ft | 491 kts | 43° |
| 2026-05-06 20:50 | 43.17504 | 151.84467 | 35056 ft | 490 kts | 43° |
| 2026-05-06 20:50 | 43.22163 | 151.91280 | 35054 ft | 489 kts | 42° |
| 2026-05-06 20:51 | 43.26815 | 151.98100 | 35046 ft | 490 kts | 43° |
| 2026-05-06 20:51 | 43.31435 | 152.04890 | 35048 ft | 490 kts | 43° |
| 2026-05-06 20:52 | 43.36063 | 152.11713 | 35047 ft | 490 kts | 43° |
| 2026-05-06 20:52 | 43.40709 | 152.18574 | 35037 ft | 490 kts | 42° |
| 2026-05-06 20:53 | 43.45354 | 152.25453 | 35035 ft | 489 kts | 42° |
| 2026-05-06 20:53 | 43.49956 | 152.32281 | 35034 ft | 489 kts | 42° |
| 2026-05-06 20:54 | 43.54565 | 152.39137 | 35030 ft | 489 kts | 42° |
| 2026-05-06 20:54 | 43.59168 | 152.46001 | 35031 ft | 489 kts | 42° |
| 2026-05-06 20:55 | 43.63786 | 152.52905 | 35028 ft | 489 kts | 42° |
| 2026-05-06 20:55 | 43.68374 | 152.59782 | 35028 ft | 488 kts | 42° |
| 2026-05-06 20:56 | 43.72973 | 152.66689 | 35019 ft | 488 kts | 43° |
| 2026-05-06 20:56 | 43.77554 | 152.73587 | 35020 ft | 488 kts | 43° |
| 2026-05-06 20:57 | 43.82126 | 152.80490 | 35018 ft | 488 kts | 43° |
| 2026-05-06 20:57 | 43.86701 | 152.87413 | 35014 ft | 488 kts | 43° |
| 2026-05-06 20:58 | 43.91277 | 152.94356 | 35008 ft | 488 kts | 43° |
| 2026-05-06 20:58 | 43.95854 | 153.01315 | 35006 ft | 489 kts | 43° |
| 2026-05-06 20:59 | 44.00427 | 153.08287 | 35007 ft | 489 kts | 43° |
| 2026-05-06 20:59 | 44.04982 | 153.15248 | 35009 ft | 488 kts | 43° |
| 2026-05-06 21:00 | 44.09555 | 153.22253 | 35005 ft | 488 kts | 43° |
| 2026-05-06 21:00 | 44.14093 | 153.29227 | 35008 ft | 488 kts | 43° |
| 2026-05-06 21:01 | 44.18682 | 153.36290 | 35006 ft | 488 kts | 43° |
| 2026-05-06 21:01 | 44.23222 | 153.43300 | 35010 ft | 488 kts | 42° |
| 2026-05-06 21:02 | 44.27769 | 153.50336 | 35006 ft | 489 kts | 42° |
| 2026-05-06 21:02 | 44.32312 | 153.57384 | 35004 ft | 488 kts | 42° |
| 2026-05-06 21:03 | 44.36820 | 153.64388 | 35014 ft | 489 kts | 42° |
| 2026-05-06 21:03 | 44.41363 | 153.71472 | 35019 ft | 491 kts | 43° |
| 2026-05-06 21:04 | 44.45898 | 153.78561 | 35020 ft | 490 kts | 43° |
| 2026-05-06 21:04 | 44.50418 | 153.85648 | 35019 ft | 490 kts | 43° |
| 2026-05-06 21:05 | 44.54938 | 153.92744 | 35017 ft | 490 kts | 43° |
| 2026-05-06 21:05 | 44.59454 | 153.99858 | 35019 ft | 490 kts | 43° |
| 2026-05-06 21:06 | 44.63964 | 154.06984 | 35013 ft | 489 kts | 42° |
| 2026-05-06 21:06 | 44.68478 | 154.14127 | 35014 ft | 489 kts | 42° |
| 2026-05-06 21:07 | 44.72947 | 154.21217 | 35011 ft | 488 kts | 42° |
| 2026-05-06 21:07 | 44.77437 | 154.28360 | 35008 ft | 487 kts | 42° |
| 2026-05-06 21:08 | 44.81937 | 154.35532 | 35140 ft | 495 kts | 42° |
| 2026-05-06 21:08 | 44.84221 | 154.39180 | 35266 ft | 497 kts | 42° |
| 2026-05-06 21:08 | 44.86509 | 154.42853 | 35453 ft | 498 kts | 42° |
| 2026-05-06 21:08 | 44.88743 | 154.46503 | 35651 ft | 498 kts | 43° |
| 2026-05-06 21:09 | 44.91016 | 154.50243 | 35847 ft | 498 kts | 43° |
| 2026-05-06 21:09 | 44.93250 | 154.53932 | 36063 ft | 498 kts | 43° |
| 2026-05-06 21:09 | 44.95486 | 154.57628 | 36250 ft | 498 kts | 43° |
| 2026-05-06 21:09 | 44.97728 | 154.61333 | 36422 ft | 498 kts | 42° |
| 2026-05-06 21:10 | 44.99956 | 154.65015 | 36613 ft | 498 kts | 43° |
| 2026-05-06 21:10 | 45.02225 | 154.68768 | 36805 ft | 499 kts | 43° |
| 2026-05-06 21:10 | 45.04438 | 154.72438 | 37017 ft | 499 kts | 43° |
| 2026-05-06 21:10 | 45.06686 | 154.76166 | 37214 ft | 499 kts | 43° |
| 2026-05-06 21:11 | 45.08945 | 154.79921 | 37400 ft | 499 kts | 43° |
| 2026-05-06 21:11 | 45.11175 | 154.83629 | 37571 ft | 499 kts | 43° |
| 2026-05-06 21:11 | 45.13419 | 154.87366 | 37749 ft | 499 kts | 43° |
| 2026-05-06 21:11 | 45.15663 | 154.91104 | 37933 ft | 499 kts | 43° |
| 2026-05-06 21:12 | 45.17911 | 154.94858 | 38048 ft | 500 kts | 43° |
| 2026-05-06 21:12 | 45.20132 | 154.98572 | 38150 ft | 501 kts | 43° |
| 2026-05-06 21:12 | 45.22376 | 155.02327 | 38285 ft | 502 kts | 43° |
| 2026-05-06 21:13 | 45.26883 | 155.09883 | 38489 ft | 505 kts | 43° |
| 2026-05-06 21:13 | 45.29162 | 155.13716 | 38625 ft | 505 kts | 43° |
| 2026-05-06 21:13 | 45.31395 | 155.17480 | 38772 ft | 505 kts | 43° |
| 2026-05-06 21:13 | 45.33660 | 155.21301 | 38961 ft | 504 kts | 43° |
| 2026-05-06 21:14 | 45.35910 | 155.25102 | 38974 ft | 505 kts | 43° |
| 2026-05-06 21:14 | 45.40424 | 155.32733 | 39004 ft | 506 kts | 43° |
| 2026-05-06 21:15 | 45.44938 | 155.40390 | 38990 ft | 506 kts | 43° |
| 2026-05-06 21:15 | 45.49427 | 155.48021 | 38992 ft | 508 kts | 43° |
| 2026-05-06 21:16 | 45.53937 | 155.55713 | 38986 ft | 507 kts | 43° |
| 2026-05-06 21:16 | 45.58445 | 155.63422 | 38996 ft | 509 kts | 43° |
| 2026-05-06 21:17 | 45.62971 | 155.71182 | 38999 ft | 509 kts | 43° |
| 2026-05-06 21:17 | 45.67485 | 155.78946 | 38988 ft | 510 kts | 43° |
| 2026-05-06 21:18 | 45.71986 | 155.86705 | 39006 ft | 511 kts | 43° |
| 2026-05-06 21:18 | 45.76522 | 155.94551 | 38988 ft | 509 kts | 43° |
| 2026-05-06 21:19 | 45.80994 | 156.02304 | 38984 ft | 510 kts | 43° |
| 2026-05-06 21:19 | 45.85520 | 156.10172 | 38980 ft | 512 kts | 43° |
| 2026-05-06 21:20 | 45.90023 | 156.18031 | 38966 ft | 511 kts | 43° |
| 2026-05-06 21:20 | 45.94528 | 156.25905 | 38974 ft | 512 kts | 43° |
| 2026-05-06 21:21 | 45.98997 | 156.33740 | 38975 ft | 510 kts | 43° |
| 2026-05-06 21:21 | 46.03486 | 156.41631 | 38970 ft | 511 kts | 43° |
| 2026-05-06 21:22 | 46.07974 | 156.49545 | 38950 ft | 510 kts | 43° |
| 2026-05-06 21:22 | 46.12445 | 156.57454 | 38981 ft | 511 kts | 43° |
| 2026-05-06 21:23 | 46.16893 | 156.65344 | 38949 ft | 510 kts | 43° |
| 2026-05-06 21:23 | 46.21352 | 156.73274 | 38939 ft | 512 kts | 43° |
| 2026-05-06 21:24 | 46.25840 | 156.81277 | 38979 ft | 512 kts | 43° |
| 2026-05-06 21:24 | 46.30280 | 156.89221 | 38969 ft | 513 kts | 43° |
| 2026-05-06 21:25 | 46.34759 | 156.97253 | 38930 ft | 513 kts | 43° |
| 2026-05-06 21:25 | 46.39217 | 157.05272 | 38965 ft | 513 kts | 43° |
| 2026-05-06 21:26 | 46.43646 | 157.13266 | 38954 ft | 513 kts | 44° |
| 2026-05-06 21:26 | 46.48101 | 157.21326 | 38945 ft | 515 kts | 44° |
| 2026-05-06 21:27 | 46.52572 | 157.29443 | 38970 ft | 514 kts | 44° |
| 2026-05-06 21:27 | 46.56997 | 157.37499 | 38954 ft | 514 kts | 44° |
| 2026-05-06 21:28 | 46.61431 | 157.45592 | 38963 ft | 512 kts | 44° |
| 2026-05-06 21:28 | 46.65862 | 157.53703 | 38970 ft | 514 kts | 43° |
| 2026-05-06 21:29 | 46.70284 | 157.61827 | 38960 ft | 513 kts | 43° |
| 2026-05-06 21:29 | 46.74694 | 157.69946 | 38956 ft | 514 kts | 44° |
| 2026-05-06 21:30 | 46.79114 | 157.78107 | 38943 ft | 516 kts | 44° |
| 2026-05-06 21:30 | 46.83546 | 157.86324 | 38965 ft | 515 kts | 44° |
| 2026-05-06 21:31 | 46.87951 | 157.94507 | 38951 ft | 517 kts | 44° |
| 2026-05-06 21:31 | 46.92382 | 158.02766 | 38960 ft | 517 kts | 44° |
| 2026-05-06 21:32 | 46.96810 | 158.11038 | 38948 ft | 517 kts | 44° |
| 2026-05-06 21:32 | 47.03409 | 158.23422 | 38923 ft | 517 kts | 44° |
| 2026-05-06 21:33 | 47.07804 | 158.31696 | 38950 ft | 518 kts | 44° |
| 2026-05-06 21:33 | 47.12222 | 158.40047 | 38937 ft | 517 kts | 44° |
| 2026-05-06 21:34 | 47.16599 | 158.48332 | 38935 ft | 517 kts | 44° |
| 2026-05-06 21:34 | 47.20986 | 158.56668 | 38943 ft | 517 kts | 44° |
| 2026-05-06 21:35 | 47.25361 | 158.65013 | 38921 ft | 517 kts | 45° |
| 2026-05-06 21:35 | 47.29718 | 158.73335 | 38921 ft | 519 kts | 45° |
| 2026-05-06 21:36 | 47.34110 | 158.81757 | 38916 ft | 520 kts | 45° |
| 2026-05-06 21:36 | 47.38485 | 158.90184 | 38909 ft | 518 kts | 45° |
| 2026-05-06 21:37 | 47.42858 | 158.98621 | 38901 ft | 519 kts | 45° |
| 2026-05-06 21:37 | 47.47204 | 159.07031 | 38892 ft | 518 kts | 45° |
| 2026-05-06 21:38 | 47.51562 | 159.15494 | 38932 ft | 518 kts | 45° |
| 2026-05-06 21:38 | 47.55917 | 159.23976 | 38899 ft | 519 kts | 45° |
| 2026-05-06 21:39 | 47.60261 | 159.32457 | 38898 ft | 519 kts | 45° |
| 2026-05-06 21:39 | 47.64595 | 159.40951 | 38911 ft | 520 kts | 45° |
| 2026-05-06 21:40 | 47.68922 | 159.49457 | 38896 ft | 520 kts | 46° |
| 2026-05-06 21:40 | 47.73273 | 159.58038 | 38894 ft | 519 kts | 46° |
| 2026-05-06 21:41 | 47.77573 | 159.66551 | 38892 ft | 519 kts | 46° |
| 2026-05-06 21:41 | 47.81894 | 159.75114 | 38894 ft | 520 kts | 47° |
| 2026-05-06 21:42 | 47.86203 | 159.83693 | 38892 ft | 520 kts | 47° |
| 2026-05-06 21:42 | 47.90526 | 159.92322 | 38867 ft | 520 kts | 47° |
| 2026-05-06 21:43 | 47.94817 | 160.00919 | 38869 ft | 522 kts | 47° |